Pagina principală
METAR-TAF:

METAR-TAF

Aeroporturi :

Slidell Airport

Slidell, Louisiana, Statele Unite ale Americii

Latitudine: 30-20-35N, longitudine: 089-49-19W, elevație: 9 m

Observații meteo curente

Raportul a fost făcut în urmă cu 22 de minute, la 21:53 UTC
Vânt 8 kt de la Sud
Temperatură 32°C
Umiditate 56%
Presiune 1016 hPa
Vizibilitate: 16.1 km
Cer senin

METAR: KASD 222153Z AUTO 18008KT 10SM CLR 32/22 A2999 RMK AO2 SLP156 T03220222

Ora: 17:15 (22:15 UTC)

Prognoză

Raportul a fost făcut în urmă cu 4 ore și 51 de minute, la 17:24 UTC
Prognoză valabilă de la 22 ora 18 UTC la 23 ora 18 UTC
Vânt 5 kt din direcții variabile
Vizibilitate: 10 km
Nori puțini la o înălțime de 4000 picior

TAF: KASD 221724Z 2218/2318 VRB05KT P6SM FEW040

Observații și prognoze meteo pentru peste 4.000 de aeroporturi (rapoarte METAR și TAF).

Stațiile disponibile sunt reprezentate pe hartă prin puncte galbene și roșii.

Țineți indicatorul mouse-ului pe punctul dorit pentru a vedea denumirea stației.

Apoi, faceți clic pentru a vedea observațiile și prognozele meteorologice.

Pentru a schimba harta: Pentru mărire, faceți clic pe butoanele verzi cu cruce neagră; pentru micșorare, pe butonul verde cu o liniuță; pentru hărți învecinate, pe săgețile verzi.


METAR-TAF: